Latest Weather Observations for Century Mine

IDQ60801

Issued at 8:02 pm EST Tuesday 28 July 2015 (issued every 30 minutes, with the page automatically refreshed every 10 minutes)

About weather observations | Map of weather stations | Latest weather observations for QLD | Other Formats
Station Details ID: 029167 Name: CENTURY MINE Lat: -18.76 Lon: 138.71 Height: 126.8 m
Data from the previous 72 hours. | See also: Recent months at Century Mine
Date/Time
EST
Temp
°C
App
Temp
°C
Dew
Point
Rel
Hum
%
Delta-T
°C
Wind Press
QNH
hPa
Press
MSL
hPa
Rain
since 9 am
mm
Dir
 
Spd
km/h
Gust
km/h
Spd
kts
Gust
kts
28/08:00pm 24.9 21.4 3.5 25 10.5 SE 11 19 6 10 1021.6 1021.2 0.0
28/07:30pm 25.2 21.6 3.2 24 10.8 SSE 11 17 6 9 1021.1 1020.7 0.0
28/07:00pm 25.9 22.0 3.2 23 11.2 SSE 13 19 7 10 1020.7 1020.3 0.0
28/06:30pm 26.1 22.5 2.7 22 11.5 SE 11 15 6 8 1020.6 1020.2 0.0
28/06:00pm 27.0 22.2 2.8 21 11.9 SE 17 28 9 15 1020.4 1020.0 0.0
28/05:30pm 28.4 23.5 1.8 18 13.0 SSE 17 28 9 15 1020.2 1019.8 0.0
28/05:00pm 28.5 23.6 1.9 18 13.0 SE 17 26 9 14 1020.0 1019.6 0.0
28/04:30pm 28.9 24.4 2.2 18 13.2 SE 15 22 8 12 1019.8 1019.5 0.0
28/04:00pm 29.1 24.5 1.6 17 13.5 SE 15 22 8 12 1019.8 1019.5 0.0
28/03:30pm 27.3 22.0 1.7 19 12.4 SE 19 30 10 16 1020.3 1019.9 0.0
28/03:00pm 29.2 24.1 0.8 16 13.7 SSE 17 26 9 14 1020.5 1020.1 0.0
28/02:30pm 29.3 24.6 0.9 16 13.8 SE 15 28 8 15 1020.8 1020.4 0.0
28/02:00pm 27.6 23.2 0.4 17 12.9 SE 13 28 7 15 1021.1 1020.7 0.0
28/01:30pm 27.6 22.8 0.4 17 12.9 SSE 15 24 8 13 1021.4 1021.0 0.0
28/01:00pm 26.4 21.2 0.2 18 12.3 SE 17 30 9 16 1022.1 1021.7 0.0
28/12:30pm 26.0 20.5 0.6 19 12.0 SE 19 26 10 14 1022.6 1022.2 0.0
28/12:00pm 25.7 20.0 0.4 19 11.8 SE 20 32 11 17 1023.0 1022.6 0.0
28/11:30am 25.0 19.3 0.5 20 11.4 SE 20 32 11 17 1023.3 1022.9 0.0
28/11:00am 23.9 17.9 0.9 22 10.7 SE 22 33 12 18 1023.7 1023.3 0.0
28/10:30am 22.9 17.2 0.7 23 10.2 SE 20 35 11 19 1024.0 1023.6 0.0
28/10:00am 22.5 17.0 0.9 24 9.9 SE 19 28 10 15 1024.3 1023.9 0.0
28/09:30am 21.3 15.3 1.0 26 9.3 SE 22 33 12 18 1024.1 1023.7 0.0
28/09:00am 20.4 14.7 0.8 27 8.8 SE 20 32 11 17 1024.0 1023.6 -
28/08:30am 19.7 15.7 0.7 28 8.5 SSE 11 19 6 10 1023.9 1023.5 -
28/08:00am 17.7 14.1 0.8 32 7.4 S 9 17 5 9 1023.8 1023.4 -
28/07:30am 16.4 12.3 0.1 33 7.0 S 11 17 6 9 1023.7 1023.3 -
28/07:00am 16.4 12.3 0.1 33 7.0 S 11 15 6 8 1023.4 1023.0 -
28/06:30am 16.7 12.6 -0.1 32 7.2 S 11 15 6 8 1023.1 1022.7 -
28/06:00am 17.0 13.0 0.2 32 7.3 S 11 17 6 9 1022.7 1022.3 -
28/05:30am 17.5 13.1 0.2 31 7.6 S 13 17 7 9 1022.7 1022.3 -
28/05:00am 18.1 14.4 -0.2 29 7.9 S 9 15 5 8 1022.7 1022.3 -
28/04:30am 18.8 14.3 -0.1 28 8.3 SSE 13 24 7 13 1022.4 1022.0 -
28/04:00am 19.0 14.2 0.1 28 8.3 SSE 15 22 8 12 1022.5 1022.1 -
28/03:30am 19.3 14.8 -0.1 27 8.6 SSE 13 20 7 11 1022.5 1022.1 -
28/03:00am 19.4 14.1 -0.6 26 8.7 SSE 17 24 9 13 1022.7 1022.3 -
28/02:30am 19.8 14.5 -0.8 25 9.0 SSE 17 30 9 16 1022.7 1022.3 -
28/02:00am 19.9 15.0 -0.7 25 9.0 SSE 15 28 8 15 1022.8 1022.4 -
28/01:30am 20.1 15.0 -1.7 23 9.4 SSE 15 22 8 12 1022.9 1022.5 -
28/01:00am 20.5 15.0 -1.9 22 9.6 SSE 17 26 9 14 1023.0 1022.6 -
28/12:30am 20.9 15.4 -2.2 21 9.9 SSE 17 28 9 15 1023.1 1022.7 -
28/12:00am 21.3 15.9 -1.3 22 9.9 SSE 17 30 9 16 1023.2 1022.8 -
 
Date/Time
EST
Temp
°C
App
Temp
°C
Dew
Point
Rel
Hum
%
Delta-T
°C
Wind Press
QNH
hPa
Press
MSL
hPa
Rain
since 9 am
mm
Dir
 
Spd
km/h
Gust
km/h
Spd
kts
Gust
kts
27/11:30pm 21.6 16.3 -0.4 23 9.8 S 17 30 9 16 1023.3 1022.9 -
27/11:00pm 22.1 17.0 0.6 24 9.8 S 17 24 9 13 1023.3 1022.9 -
27/10:30pm 22.4 17.3 0.9 24 9.9 S 17 30 9 16 1023.3 1022.9 -
27/10:00pm 22.5 17.3 0.4 23 10.1 S 17 26 9 14 1023.3 1022.9 -
27/09:30pm 22.7 17.2 0.5 23 10.2 S 19 32 10 17 1023.3 1022.9 -
27/09:00pm 22.9 17.8 0.7 23 10.2 S 17 28 9 15 1023.1 1022.7 -
27/08:30pm 23.6 18.5 0.7 22 10.6 SSW 17 28 9 15 1022.9 1022.5 -
27/08:00pm 24.7 19.7 1.6 22 10.9 SSE 17 26 9 14 1022.5 1022.1 -
27/07:30pm 25.0 20.1 1.8 22 11.1 S 17 28 9 15 1022.1 1021.7 -
27/07:00pm 25.6 21.1 2.3 22 11.3 S 15 24 8 13 1021.8 1021.4 -
27/06:30pm 26.1 20.6 2.1 21 11.6 SSE 20 33 11 18 1021.3 1020.9 0.0
27/06:00pm 26.4 21.2 2.3 21 11.7 SSE 19 30 10 16 1021.1 1020.7 0.0
27/05:30pm 27.0 22.2 2.8 21 12.0 S 17 30 9 16 1020.7 1020.3 0.0
27/05:00pm 27.5 21.8 2.6 20 12.3 S 22 35 12 19 1020.6 1020.2 0.0
27/04:30pm 27.2 21.4 2.3 20 12.2 S 22 37 12 20 1020.5 1020.1 0.0
27/04:00pm 28.0 22.7 3.0 20 12.4 S 20 32 11 17 1020.3 1019.9 0.0
27/03:30pm 28.3 23.2 3.2 20 12.6 SSE 19 33 10 18 1020.1 1019.7 0.0
27/03:00pm 28.4 23.2 3.3 20 12.6 SSE 20 37 11 20 1020.2 1019.8 0.0
27/02:30pm 29.2 24.1 3.2 19 13.1 SSE 19 33 10 18 1020.4 1020.0 0.0
27/02:00pm 28.0 22.7 3.0 20 12.4 ESE 20 30 11 16 1020.9 1020.5 0.0
27/01:30pm 27.0 22.0 3.5 22 11.8 SE 19 30 10 16 1021.5 1021.1 0.0
27/01:00pm 28.1 23.0 3.0 20 12.5 SE 19 33 10 18 1022.1 1021.7 0.0
27/12:30pm 27.9 22.7 3.6 21 12.3 SE 20 32 11 17 1022.6 1022.2 0.0
27/12:00pm 26.4 21.3 3.0 22 11.5 SE 19 30 10 16 1023.1 1022.7 0.0
27/11:30am 26.2 20.6 3.4 23 11.3 SE 22 37 12 20 1023.5 1023.1 0.0
27/11:00am 25.7 20.6 3.0 23 11.1 SE 19 30 10 16 1023.9 1023.5 0.0
27/10:30am 24.0 18.8 2.2 24 10.4 SE 19 26 10 14 1024.6 1024.2 0.0
27/10:00am 23.6 18.9 3.0 26 9.9 SE 17 26 9 14 1024.6 1024.2 0.0
27/09:30am 22.5 17.4 3.1 28 9.3 SSE 19 28 10 15 1024.6 1024.2 0.0
27/09:00am 21.4 17.1 3.1 30 8.7 SSE 15 28 8 15 1024.3 1023.9 0.0
27/08:30am 20.6 16.7 3.3 32 8.2 SSE 13 22 7 12 1023.9 1023.5 0.0
27/08:00am 20.4 16.1 3.2 32 8.1 SSE 15 22 8 12 1023.5 1023.1 0.0
27/07:30am 20.3 16.0 3.1 32 8.1 SSE 15 22 8 12 1023.2 1022.8 0.0
27/07:00am 20.5 16.1 2.8 31 8.3 SSE 15 22 8 12 1022.8 1022.4 0.0
27/06:30am 20.6 16.2 2.9 31 8.4 SSE 15 24 8 13 1022.3 1021.9 0.0
27/06:00am 20.5 16.4 2.3 30 8.5 SSE 13 17 7 9 1021.9 1021.5 0.0
27/05:30am 20.8 16.7 2.1 29 8.7 SSE 13 19 7 10 1021.6 1021.2 0.0
27/05:00am 21.2 17.1 2.0 28 8.9 SSE 13 20 7 11 1021.7 1021.3 0.0
27/04:30am 21.7 17.2 1.9 27 9.3 SSE 15 24 8 13 1021.4 1021.0 0.0
27/04:00am 21.9 17.4 2.1 27 9.3 SSE 15 22 8 12 1021.1 1020.7 0.0
27/03:30am 21.9 18.1 1.5 26 9.5 SSE 11 17 6 9 1021.0 1020.6 0.0
27/03:00am 22.0 18.7 2.2 27 9.3 SSE 9 13 5 7 1021.1 1020.7 0.0
27/02:30am 22.5 19.1 2.1 26 9.6 S 9 19 5 10 1021.2 1020.8 0.0
27/02:00am 22.9 19.6 2.4 26 9.7 S 9 19 5 10 1021.1 1020.7 0.0
27/01:30am 23.5 19.5 2.9 26 10.0 SSE 13 22 7 12 1021.3 1020.9 0.0
27/01:00am 23.1 20.0 3.6 28 9.5 S 9 11 5 6 1021.3 1020.9 0.0
27/12:30am 24.1 20.7 4.0 27 10.0 S 11 20 6 11 1021.3 1020.9 0.0
27/12:00am 24.9 21.2 4.6 27 10.2 SSE 13 20 7 11 1021.1 1020.7 0.0
 
Date/Time
EST
Temp
°C
App
Temp
°C
Dew
Point
Rel
Hum
%
Delta-T
°C
Wind Press
QNH
hPa
Press
MSL
hPa
Rain
since 9 am
mm
Dir
 
Spd
km/h
Gust
km/h
Spd
kts
Gust
kts
26/11:30pm 25.0 21.8 5.2 28 10.1 S 11 17 6 9 1021.0 1020.6 0.0
26/11:00pm 25.5 22.1 5.7 28 10.2 S 13 19 7 10 1020.9 1020.5 0.0
26/10:30pm 25.9 22.6 6.5 29 10.2 S 13 17 7 9 1020.7 1020.3 0.0
26/10:00pm 25.6 23.0 6.3 29 10.0 S 9 17 5 9 1020.7 1020.3 0.0
26/09:30pm 24.7 22.5 5.5 29 9.8 SSE 6 7 3 4 1020.5 1020.1 0.0
26/09:00pm 26.1 23.6 6.7 29 10.2 SSE 9 11 5 6 1020.2 1019.8 0.0
26/08:30pm 26.5 24.4 6.0 27 10.7 S 6 9 3 5 1019.7 1019.4 0.0
26/08:00pm 28.0 25.1 6.7 26 11.3 S 11 13 6 7 1019.1 1018.8 0.0
26/07:30pm 28.7 26.6 6.7 25 11.8 S 7 11 4 6 1018.4 1018.1 0.0
26/07:00pm 30.0 27.5 6.6 23 12.6 SSE 9 15 5 8 1017.9 1017.5 0.0
26/06:30pm 30.8 28.3 6.6 22 13.1 SE 9 13 5 7 1017.7 1017.3 0.0
26/06:00pm 32.3 29.8 6.5 20 14.0 SE 9 17 5 9 1017.4 1017.0 0.0
26/05:30pm 32.9 29.6 6.2 19 14.5 SE 13 20 7 11 1017.0 1016.6 0.0
26/05:00pm 33.2 30.5 5.7 18 14.8 SE 9 20 5 11 1016.7 1016.3 0.0
26/04:30pm 33.7 30.0 6.1 18 15.0 SE 15 24 8 13 1016.5 1016.1 0.0
26/04:00pm 33.8 30.5 6.2 18 15.0 ESE 13 22 7 12 1016.4 1016.0 0.0
26/03:30pm 33.7 30.5 5.3 17 15.2 SE 11 24 6 13 1016.4 1016.0 0.0
26/03:00pm 33.9 30.2 6.3 18 15.0 SE 15 24 8 13 1016.6 1016.2 0.0
26/02:30pm 33.3 29.1 5.8 18 14.8 E 17 24 9 13 1016.9 1016.5 0.0
26/02:00pm 33.2 29.4 5.7 18 14.8 ESE 15 22 8 12 1017.4 1017.0 0.0
26/01:30pm 32.8 28.2 5.4 18 14.7 ESE 19 32 10 17 1018.0 1017.6 0.0
26/01:00pm 32.2 28.0 5.7 19 14.2 ESE 17 26 9 14 1018.6 1018.3 0.0
26/12:30pm 32.1 27.6 6.3 20 14.0 ESE 19 28 10 15 1019.1 1018.8 0.0
26/12:00pm 31.3 26.9 6.4 21 13.4 ESE 19 32 10 17 1019.6 1019.3 0.0
26/11:30am 31.3 26.9 6.4 21 13.4 E 19 30 10 16 1020.1 1019.7 0.0
26/11:00am 29.2 24.7 6.0 23 12.3 ESE 19 30 10 16 1020.5 1020.1 0.0
26/10:30am 28.9 24.3 6.3 24 12.0 ESE 20 26 11 14 1020.7 1020.3 0.0
26/10:00am 27.6 23.7 6.9 27 11.0 ESE 17 26 9 14 1020.9 1020.5 0.0
26/09:30am 26.0 23.2 7.1 30 10.0 SE 11 15 6 8 1020.8 1020.4 0.0
26/09:00am 24.4 21.9 6.6 32 9.2 SSE 9 17 5 9 1020.6 1020.2 0.0
26/08:30am 22.3 20.4 6.9 37 8.0 S 6 11 3 6 1020.2 1019.8 0.0
26/08:00am 20.5 18.8 7.5 43 6.7 S 6 7 3 4 1019.7 1019.4 0.0
26/07:30am 19.2 18.3 6.0 42 6.6 CALM 0 0 0 0 1019.1 1018.8 0.0
26/07:00am 20.1 18.1 6.1 40 7.0 S 6 9 3 5 1018.6 1018.3 0.0
26/06:30am 20.9 18.3 6.1 38 7.5 S 9 11 5 6 1018.2 1017.9 0.0
26/06:00am 21.6 18.7 6.3 37 7.8 S 11 17 6 9 1018.0 1017.6 0.0
26/05:30am 21.9 18.6 6.6 37 7.8 SSW 13 20 7 11 1017.8 1017.4 0.0
26/05:00am 21.9 19.0 6.6 37 7.8 S 11 15 6 8 1017.6 1017.2 0.0
26/04:30am 22.2 18.9 6.4 36 8.1 S 13 17 7 9 1017.4 1017.0 0.0
26/04:00am 22.5 19.9 6.3 35 8.3 S 9 13 5 7 1017.5 1017.1 0.0
26/03:30am 23.3 20.0 6.6 34 8.6 S 13 19 7 10 1017.5 1017.1 0.0
26/03:00am 22.8 19.9 6.6 35 8.3 SSW 11 15 6 8 1017.6 1017.2 0.0
26/02:30am 23.1 20.7 6.8 35 8.4 S 9 11 5 6 1017.6 1017.2 0.0
26/02:00am 23.5 21.1 7.2 35 8.5 SSW 9 15 5 8 1017.7 1017.3 0.0
26/01:30am 21.1 18.9 7.7 42 7.0 SSW 9 11 5 6 1017.9 1017.5 0.0
26/01:00am 19.9 17.7 7.9 46 6.2 SW 9 9 5 5 1018.0 1017.6 0.0
26/12:30am 20.1 17.7 8.8 48 6.0 SSW 11 13 6 7 1018.2 1017.9 0.0
26/12:00am 19.5 17.6 6.6 43 6.5 SW 6 7 3 4 1018.3 1018.0 0.0
 
Date/Time
EST
Temp
°C
App
Temp
°C
Dew
Point
Rel
Hum
%
Delta-T
°C
Wind Press
QNH
hPa
Press
MSL
hPa
Rain
since 9 am
mm
Dir
 
Spd
km/h
Gust
km/h
Spd
kts
Gust
kts
25/11:30pm 19.9 17.6 5.9 40 7.0 SW 7 7 4 4 1018.3 1018.0 0.0
25/11:00pm 20.8 18.7 6.7 40 7.2 SSW 7 9 4 5 1018.4 1018.1 0.0
25/10:30pm 20.7 18.4 5.5 37 7.6 SSW 7 7 4 4 1018.4 1018.1 0.0
25/10:00pm 21.5 19.2 5.8 36 7.9 SW 7 9 4 5 1018.2 1017.9 0.0
25/09:30pm 22.0 21.0 5.8 35 8.2 CALM 0 0 0 0 1018.0 1017.6 0.0
25/09:00pm 22.4 21.4 5.4 33 8.5 CALM 0 0 0 0 1017.7 1017.3 0.0
25/08:30pm 23.3 22.3 5.7 32 8.9 CALM 0 0 0 0 1017.4 1017.0 0.0

Other Formats:

Comma delimited format used in spreadsheet applications
http://www.bom.gov.au/fwo/IDQ60801/IDQ60801.94261.axf

JavaScript Object Notation format (JSON) in row-major order
http://www.bom.gov.au/fwo/IDQ60801/IDQ60801.94261.json